createdAt,value
2019-04-11T00:00:52.136Z,4.01
2019-04-11T00:03:21.747Z,4.04
2019-04-11T00:05:51.366Z,4.05
2019-04-11T00:08:21.773Z,4.07
2019-04-11T00:10:51.440Z,4.08
2019-04-11T00:13:24.399Z,4.06
2019-04-11T00:15:52.946Z,3.91
2019-04-11T00:18:22.909Z,3.84
2019-04-11T00:20:52.849Z,3.77
2019-04-11T00:23:22.447Z,3.66
2019-04-11T00:25:52.122Z,3.65
2019-04-11T00:28:21.728Z,3.64
2019-04-11T00:30:52.430Z,3.65
2019-04-11T00:33:23.271Z,3.64
2019-04-11T00:35:54.359Z,3.54
2019-04-11T00:38:23.975Z,3.55
2019-04-11T00:40:53.913Z,3.54
2019-04-11T00:43:31.599Z,3.46
2019-04-11T00:45:56.030Z,3.39
2019-04-11T00:48:25.940Z,3.42
2019-04-11T00:50:55.977Z,3.52
2019-04-11T00:53:27.773Z,3.58
2019-04-11T00:55:59.882Z,3.56
2019-04-11T00:58:29.785Z,3.58
2019-04-11T01:00:59.755Z,3.58
2019-04-11T01:03:30.444Z,3.61
2019-04-11T01:06:00.115Z,3.67
2019-04-11T01:08:29.802Z,3.75
2019-04-11T01:11:00.130Z,3.80
2019-04-11T01:13:40.573Z,3.85
2019-04-11T01:16:21.327Z,3.90
2019-04-11T01:18:52.003Z,3.92
2019-04-11T01:21:24.199Z,3.84
2019-04-11T01:23:54.104Z,3.81
2019-04-11T01:26:23.720Z,3.82
2019-04-11T01:28:53.604Z,3.85
2019-04-11T01:31:25.290Z,3.87
2019-04-11T01:33:55.980Z,3.90
2019-04-11T01:36:26.752Z,3.92
2019-04-11T01:39:05.176Z,3.93
2019-04-11T01:41:36.415Z,3.96
2019-04-11T01:44:07.545Z,4.00
2019-04-11T01:46:38.244Z,4.03
2019-04-11T01:49:14.227Z,4.03
2019-04-11T01:51:43.997Z,4.04
2019-04-11T01:54:15.283Z,4.03
2019-04-11T01:56:45.496Z,4.02
2019-04-11T01:59:15.473Z,4.01
2019-04-11T02:02:05.439Z,4.01
2019-04-11T02:04:37.198Z,4.03
2019-04-11T02:07:10.148Z,4.02
2019-04-11T02:09:40.150Z,4.02
2019-04-11T02:12:10.003Z,4.01
2019-04-11T02:14:41.701Z,4.00
2019-04-11T02:17:12.527Z,3.97
2019-04-11T02:19:42.597Z,3.88
2019-04-11T02:22:22.744Z,3.83
2019-04-11T02:25:00.587Z,3.75
2019-04-11T02:27:32.688Z,3.68
2019-04-11T02:30:03.933Z,3.65
2019-04-11T02:32:34.948Z,3.66
2019-04-11T02:35:07.866Z,3.69
2019-04-11T02:37:38.100Z,3.72
2019-04-11T02:40:13.535Z,3.74
2019-04-11T02:42:43.487Z,3.76
2019-04-11T02:45:27.328Z,3.75
2019-04-11T02:47:48.180Z,3.65
2019-04-11T02:50:19.720Z,3.52
2019-04-11T02:52:49.836Z,3.50
2019-04-11T02:55:21.109Z,3.52
2019-04-11T02:57:51.325Z,3.58
2019-04-11T03:00:21.058Z,3.62
2019-04-11T03:02:53.159Z,3.64
2019-04-11T03:05:24.637Z,3.67
2019-04-11T03:07:56.422Z,3.70
2019-04-11T03:10:28.637Z,3.70
2019-04-11T03:12:59.128Z,3.72
2019-04-11T03:15:43.071Z,3.75
2019-04-11T03:18:06.088Z,3.77
2019-04-11T03:20:41.003Z,3.78
2019-04-11T03:23:10.133Z,3.79
2019-04-11T03:25:38.479Z,3.79
2019-04-11T03:28:13.570Z,3.79
2019-04-11T03:30:59.120Z,3.80
2019-04-11T03:38:38.584Z,3.84
2019-04-11T03:41:08.731Z,3.86
2019-04-11T03:43:30.270Z,3.86
2019-04-11T03:46:11.761Z,3.83
2019-04-11T03:48:38.160Z,3.84
2019-04-11T03:50:55.526Z,3.85
2019-04-11T03:53:29.536Z,3.85
2019-04-11T03:55:59.202Z,3.85
2019-04-11T03:58:30.709Z,3.84
2019-04-11T04:01:03.386Z,3.81
2019-04-11T04:03:34.200Z,3.79
2019-04-11T04:06:06.849Z,3.79
2019-04-11T04:08:38.639Z,3.79
2019-04-11T04:11:12.303Z,3.79
2019-04-11T04:13:47.731Z,3.78
2019-04-11T04:16:39.844Z,3.78
2019-04-11T04:19:15.234Z,3.74
2019-04-11T04:21:55.385Z,3.74
2019-04-11T04:24:34.204Z,3.73
2019-04-11T04:27:02.681Z,3.70
2019-04-11T04:29:35.205Z,3.65
2019-04-11T04:32:07.691Z,3.64
2019-04-11T04:34:40.227Z,3.56
2019-04-11T04:37:12.053Z,3.51
2019-04-11T04:39:43.579Z,3.47
2019-04-11T04:42:24.125Z,3.43
2019-04-11T04:44:46.542Z,3.35
2019-04-11T04:47:22.290Z,3.31
2019-04-11T04:49:48.666Z,3.37
2019-04-11T04:52:18.932Z,3.41
2019-04-11T04:54:49.221Z,3.46
2019-04-11T04:57:20.246Z,3.39
2019-04-11T04:59:50.039Z,3.27
2019-04-11T05:02:20.636Z,3.08
2019-04-11T05:04:52.024Z,3.02
2019-04-11T05:07:23.436Z,3.07
2019-04-11T05:09:54.577Z,3.09
2019-04-11T05:12:26.039Z,3.18
2019-04-11T05:14:56.088Z,3.25
2019-04-11T05:17:28.168Z,3.33
2019-04-11T05:19:58.426Z,3.41
2019-04-11T05:22:28.374Z,3.46
2019-04-11T05:25:01.308Z,3.49
2019-04-11T05:27:29.454Z,3.56
2019-04-11T05:29:59.076Z,3.61
2019-04-11T05:32:29.181Z,3.66
2019-04-11T05:34:58.994Z,3.64
2019-04-11T05:37:29.229Z,3.71
2019-04-11T05:39:58.896Z,3.74
2019-04-11T05:42:29.211Z,3.77
2019-04-11T05:44:59.189Z,3.80
2019-04-11T05:47:37.308Z,3.83
2019-04-11T05:50:18.302Z,3.86
2019-04-11T05:52:48.283Z,3.86
2019-04-11T05:55:17.930Z,3.87
2019-04-11T05:57:47.842Z,3.91
2019-04-11T06:00:19.508Z,3.96
2019-04-11T06:02:53.480Z,4.01
2019-04-11T06:05:31.808Z,4.05
2019-04-11T06:08:00.780Z,4.09
2019-04-11T06:10:37.054Z,4.12
2019-04-11T06:13:13.762Z,4.13
2019-04-11T06:15:53.649Z,4.12
2019-04-11T06:18:31.249Z,4.14
2019-04-11T06:21:01.928Z,4.16
2019-04-11T06:23:41.899Z,4.18
2019-04-11T06:26:28.494Z,4.19
2019-04-11T06:29:24.344Z,4.20
2019-04-11T06:32:07.789Z,4.19
2019-04-11T06:34:39.681Z,4.19
2019-04-11T06:37:11.789Z,4.16
2019-04-11T06:39:43.356Z,4.18
2019-04-11T06:42:28.427Z,4.16
2019-04-11T06:45:17.517Z,4.15
2019-04-11T06:48:05.340Z,4.14
2019-04-11T06:50:49.380Z,4.19
2019-04-11T06:53:21.617Z,4.19
2019-04-11T06:55:53.197Z,4.20
2019-04-11T06:58:25.628Z,4.23
2019-04-11T07:00:59.303Z,4.30
2019-04-11T07:03:32.124Z,4.36
2019-04-11T07:06:03.569Z,4.42
2019-04-11T07:08:34.844Z,4.43
2019-04-11T07:11:12.010Z,4.41
2019-04-11T07:13:55.516Z,4.42
2019-04-11T07:16:25.459Z,4.48
2019-04-11T07:18:57.076Z,4.51
2019-04-11T07:21:28.331Z,4.55
2019-04-11T07:24:16.137Z,4.58
2019-04-11T07:26:46.419Z,4.58
2019-04-11T07:29:24.096Z,4.57
2019-04-11T07:32:04.844Z,4.54
2019-04-11T07:34:41.870Z,4.55
2019-04-11T07:37:19.121Z,4.52
2019-04-11T07:40:09.459Z,4.51
2019-04-11T07:42:41.153Z,4.56
2019-04-11T07:45:27.739Z,4.60
2019-04-11T07:48:17.307Z,4.62
2019-04-11T07:50:47.279Z,4.71
2019-04-11T07:53:19.634Z,4.76
2019-04-11T07:55:50.794Z,4.78
2019-04-11T07:58:22.300Z,4.80
2019-04-11T08:01:05.208Z,4.87
2019-04-11T08:03:51.738Z,4.92
2019-04-11T08:06:39.446Z,4.91
2019-04-11T08:09:15.282Z,4.87
2019-04-11T08:11:49.891Z,4.82
2019-04-11T08:14:26.851Z,4.75
2019-04-11T08:17:25.452Z,4.72
2019-04-11T08:20:03.032Z,4.74
2019-04-11T08:22:39.096Z,4.75
2019-04-11T08:25:27.675Z,4.76
2019-04-11T08:28:07.571Z,4.82
2019-04-11T08:30:53.376Z,4.87
2019-04-11T08:33:24.771Z,4.92
2019-04-11T08:36:02.135Z,4.99
2019-04-11T08:38:34.153Z,5.05
2019-04-11T08:41:09.407Z,5.09
2019-04-11T08:43:39.392Z,5.14
2019-04-11T08:46:13.290Z,5.18
2019-04-11T08:48:45.616Z,5.21
2019-04-11T08:51:17.008Z,5.27
2019-04-11T08:53:51.122Z,5.28
2019-04-11T08:56:23.743Z,5.23
2019-04-11T08:59:13.449Z,5.14
2019-04-11T09:01:44.479Z,5.02
2019-04-11T09:04:32.424Z,4.90
2019-04-11T09:07:03.298Z,4.82
2019-04-11T09:09:45.425Z,4.79
2019-04-11T09:12:15.504Z,4.79
2019-04-11T09:14:56.779Z,4.80
2019-04-11T09:17:31.245Z,4.82
2019-04-11T09:20:11.762Z,4.82
2019-04-11T09:22:43.068Z,4.84
2019-04-11T09:25:23.326Z,4.85
2019-04-11T09:27:55.606Z,4.91
2019-04-11T09:30:27.032Z,4.98
2019-04-11T09:33:15.096Z,5.03
2019-04-11T09:35:55.514Z,5.06
2019-04-11T09:38:26.859Z,5.09
2019-04-11T09:41:08.114Z,5.17
2019-04-11T09:43:40.213Z,5.25
2019-04-11T09:46:27.463Z,5.31
2019-04-11T09:48:59.001Z,5.35
2019-04-11T09:51:45.312Z,5.39
2019-04-11T09:54:33.915Z,5.39
2019-04-11T09:57:05.643Z,5.38
2019-04-11T09:59:37.042Z,5.46
2019-04-11T10:02:11.310Z,5.53
2019-04-11T10:04:43.784Z,5.59
2019-04-11T10:07:28.127Z,5.63
2019-04-11T10:10:00.173Z,5.67
2019-04-11T10:12:40.741Z,5.66
2019-04-11T10:15:11.757Z,5.59
2019-04-11T10:17:59.088Z,5.56
2019-04-11T10:20:28.837Z,5.58
2019-04-11T10:23:18.828Z,5.62
2019-04-11T10:25:49.725Z,5.63
2019-04-11T10:28:27.299Z,5.68
2019-04-11T10:31:02.190Z,5.70
2019-04-11T10:33:37.266Z,5.64
2019-04-11T10:36:10.967Z,5.57
2019-04-11T10:38:41.048Z,5.59
2019-04-11T10:41:28.610Z,5.57
2019-04-11T10:43:59.394Z,5.51
2019-04-11T10:46:45.699Z,5.43
2019-04-11T10:49:26.285Z,5.37
2019-04-11T10:51:58.200Z,5.29
2019-04-11T10:54:30.939Z,5.24
2019-04-11T10:57:18.750Z,5.24
2019-04-11T10:59:56.563Z,5.25
2019-04-11T11:02:45.299Z,5.25
2019-04-11T11:05:18.891Z,5.27
2019-04-11T11:07:48.904Z,5.27
2019-04-11T11:10:21.568Z,5.32
2019-04-11T11:13:05.667Z,5.30
2019-04-11T11:15:38.140Z,5.34
2019-04-11T11:18:59.722Z,5.39
2019-04-11T11:20:55.229Z,5.40
2019-04-11T11:23:37.359Z,5.44
2019-04-11T11:26:22.691Z,5.55
2019-04-11T11:28:53.454Z,5.62
2019-04-11T11:31:24.762Z,5.64
2019-04-11T11:33:56.979Z,5.65
2019-04-11T11:36:38.042Z,5.70
2019-04-11T11:39:13.061Z,5.70
2019-04-11T11:42:02.573Z,5.67
2019-04-11T11:44:50.484Z,5.67
2019-04-11T11:47:24.465Z,5.69
2019-04-11T11:50:00.596Z,5.70
2019-04-11T11:52:36.059Z,5.69
2019-04-11T11:55:10.754Z,5.68
2019-04-11T11:57:42.710Z,5.68
2019-04-11T12:00:17.003Z,5.70
2019-04-11T12:03:05.308Z,5.72
2019-04-11T12:05:36.723Z,5.72
2019-04-11T12:08:13.598Z,5.75
2019-04-11T12:10:46.307Z,5.77
2019-04-11T12:13:20.543Z,5.80
2019-04-11T12:16:08.406Z,5.88
2019-04-11T12:18:48.622Z,5.97
2019-04-11T12:21:26.521Z,6.03
2019-04-11T12:24:03.444Z,6.06
2019-04-11T12:26:33.258Z,6.11
2019-04-11T12:29:12.413Z,6.15
2019-04-11T12:31:44.045Z,6.21
2019-04-11T12:34:18.661Z,6.30
2019-04-11T12:36:50.984Z,6.38
2019-04-11T12:39:38.092Z,6.41
2019-04-11T12:42:15.160Z,6.43
2019-04-11T12:45:02.713Z,6.44
2019-04-11T12:47:33.501Z,6.41
2019-04-11T12:50:05.655Z,6.39
2019-04-11T12:52:39.404Z,6.39
2019-04-11T12:55:19.768Z,6.33
2019-04-11T12:57:53.494Z,6.31
2019-04-11T13:00:27.699Z,6.30
2019-04-11T13:03:02.082Z,6.30
2019-04-11T13:05:33.517Z,6.31
2019-04-11T13:08:22.253Z,6.31
2019-04-11T13:10:51.945Z,6.28
2019-04-11T13:13:23.197Z,6.23
2019-04-11T13:15:55.036Z,6.23
2019-04-11T13:18:32.068Z,6.20
2019-04-11T13:21:03.393Z,6.18
2019-04-11T13:23:34.728Z,6.23
2019-04-11T13:26:15.340Z,6.27
2019-04-11T13:28:46.592Z,6.31
2019-04-11T13:31:34.194Z,6.31
2019-04-11T13:34:07.912Z,6.30
2019-04-11T13:36:41.940Z,6.28
2019-04-11T13:39:11.627Z,6.29
2019-04-11T13:41:42.993Z,6.25
2019-04-11T13:44:14.415Z,6.20
2019-04-11T13:46:48.177Z,6.12
2019-04-11T13:49:19.636Z,6.07
2019-04-11T13:51:51.027Z,6.07
2019-04-11T13:54:22.322Z,6.07
2019-04-11T13:57:10.073Z,6.09
2019-04-11T13:59:58.103Z,6.11
2019-04-11T14:02:31.876Z,6.15
2019-04-11T14:05:03.208Z,6.16
2019-04-11T14:07:34.476Z,6.19
2019-04-11T14:10:14.887Z,6.23
2019-04-11T14:12:45.582Z,6.25
2019-04-11T14:15:17.005Z,6.09
2019-04-11T14:17:48.390Z,5.95
2019-04-11T14:20:31.613Z,5.77
2019-04-11T14:23:04.000Z,5.67
2019-04-11T14:25:53.785Z,5.57
2019-04-11T14:28:25.566Z,5.57
2019-04-11T14:31:02.680Z,5.57
2019-04-11T14:33:34.020Z,5.58
2019-04-11T14:36:32.625Z,5.63
2019-04-11T14:38:54.857Z,5.68
2019-04-11T14:41:41.529Z,5.75
2019-04-11T14:44:08.983Z,5.78
2019-04-11T14:46:56.661Z,5.75
2019-04-11T14:49:27.174Z,5.75
2019-04-11T14:52:07.464Z,5.70
2019-04-11T14:54:38.806Z,5.62
2019-04-11T14:57:10.055Z,5.52
2019-04-11T14:59:47.242Z,5.45
2019-04-11T15:02:24.197Z,5.44
2019-04-11T15:05:01.513Z,5.44
2019-04-11T15:07:32.735Z,5.44
2019-04-11T15:10:14.684Z,5.46
2019-04-11T15:12:45.739Z,5.50
2019-04-11T15:15:35.130Z,5.52
2019-04-11T15:18:05.491Z,5.54
2019-04-11T15:20:55.128Z,5.57
2019-04-11T15:23:23.692Z,5.62
2019-04-11T15:26:10.261Z,5.65
2019-04-11T15:28:47.440Z,5.65
2019-04-11T15:31:24.701Z,5.66
2019-04-11T15:34:12.220Z,5.65
2019-04-11T15:36:43.549Z,5.64
2019-04-11T15:39:23.550Z,5.66
2019-04-11T15:42:01.799Z,5.66
2019-04-11T15:44:41.834Z,5.62
2019-04-11T15:47:18.710Z,5.59
2019-04-11T15:49:49.666Z,5.58
2019-04-11T15:52:19.379Z,5.56
2019-04-11T15:54:56.523Z,5.59
2019-04-11T15:57:27.762Z,5.59
2019-04-11T16:00:04.692Z,5.59
2019-04-11T16:02:44.794Z,5.59
2019-04-11T16:05:32.406Z,5.60
2019-04-11T16:08:20.558Z,5.60
2019-04-11T16:10:57.986Z,5.59
2019-04-11T16:13:45.316Z,5.56
2019-04-11T16:16:14.981Z,5.51
2019-04-11T16:18:47.103Z,5.47
2019-04-11T16:21:39.796Z,5.47
2019-04-11T16:24:10.090Z,5.47
2019-04-11T16:26:47.347Z,5.46
2019-04-11T16:29:27.202Z,5.43
2019-04-11T16:31:58.520Z,5.38
2019-04-11T16:34:29.803Z,5.35
2019-04-11T16:36:59.404Z,5.31
2019-04-11T16:39:32.926Z,5.26
2019-04-11T16:42:03.676Z,5.20
2019-04-11T16:44:46.139Z,5.15
2019-04-11T16:47:19.944Z,5.16
2019-04-11T16:49:52.267Z,5.17
2019-04-11T16:52:21.755Z,5.17
2019-04-11T16:54:51.393Z,5.17
2019-04-11T16:57:21.032Z,5.17
2019-04-11T16:59:50.713Z,5.16
2019-04-11T17:02:31.614Z,5.13
2019-04-11T17:05:02.979Z,5.15
2019-04-11T17:07:40.247Z,5.15
2019-04-11T17:10:11.784Z,5.13
2019-04-11T17:12:41.495Z,5.12
2019-04-11T17:15:11.777Z,5.12
2019-04-11T17:17:41.467Z,5.12
2019-04-11T17:20:13.043Z,5.14
2019-04-11T17:22:42.754Z,5.14
2019-04-11T17:25:12.709Z,5.14
2019-04-11T17:27:42.454Z,5.15
2019-04-11T17:30:13.060Z,5.15
2019-04-11T17:32:42.910Z,5.11
2019-04-11T17:35:16.156Z,5.06
2019-04-11T17:37:48.806Z,5.01
2019-04-11T17:40:18.657Z,4.95
2019-04-11T17:42:48.405Z,4.91
2019-04-11T17:45:18.232Z,4.88
2019-04-11T17:47:48.038Z,4.88
2019-04-11T17:50:20.732Z,4.89
2019-04-11T17:52:54.400Z,4.90
2019-04-11T17:55:24.017Z,4.90
2019-04-11T17:57:56.857Z,4.89
2019-04-11T18:00:30.648Z,4.81
2019-04-11T18:03:01.612Z,4.79
2019-04-11T18:05:31.322Z,4.76
2019-04-11T18:08:02.600Z,4.76
2019-04-11T18:10:34.767Z,4.74
2019-04-11T18:13:03.620Z,4.75
2019-04-11T18:15:33.309Z,4.74
2019-04-11T18:18:05.230Z,4.74
2019-04-11T18:20:36.825Z,4.76
2019-04-11T18:23:05.714Z,4.76
2019-04-11T18:25:36.280Z,4.76
2019-04-11T18:28:06.863Z,4.75
2019-04-11T18:30:36.672Z,4.76
2019-04-11T18:33:06.286Z,4.77
2019-04-11T18:35:36.371Z,4.79
2019-04-11T18:38:07.093Z,4.78
2019-04-11T18:40:37.918Z,4.79
2019-04-11T18:43:08.376Z,4.79
2019-04-11T18:45:38.310Z,4.78
2019-04-11T18:48:08.241Z,4.76
2019-04-11T18:50:38.212Z,4.75
2019-04-11T18:53:08.320Z,4.75
2019-04-11T18:55:38.863Z,4.76
2019-04-11T18:58:08.909Z,4.76
2019-04-11T19:00:39.214Z,4.75
2019-04-11T19:03:10.263Z,4.68
2019-04-11T19:05:42.922Z,4.73
2019-04-11T19:08:13.164Z,4.70
2019-04-11T19:10:45.745Z,4.69
2019-04-11T19:13:17.017Z,4.70
2019-04-11T19:15:48.567Z,4.69
2019-04-11T19:18:18.250Z,4.70
2019-04-11T19:20:50.327Z,4.70
2019-04-11T19:23:19.364Z,4.71
2019-04-11T19:25:49.017Z,4.70
2019-04-11T19:28:18.828Z,4.70
2019-04-11T19:30:49.487Z,4.69
2019-04-11T19:33:19.351Z,4.66
2019-04-11T19:35:53.219Z,4.63
2019-04-11T19:38:24.972Z,4.63
2019-04-11T19:40:55.678Z,4.62
2019-04-11T19:43:25.828Z,4.57
2019-04-11T19:45:58.630Z,4.53
2019-04-11T19:48:28.862Z,4.50
2019-04-11T19:50:59.451Z,4.47
2019-04-11T19:53:33.033Z,4.44
2019-04-11T19:56:08.939Z,4.43
2019-04-11T19:58:39.271Z,4.41
2019-04-11T20:01:11.045Z,4.38
2019-04-11T20:03:42.310Z,4.34
2019-04-11T20:06:13.385Z,4.37
2019-04-11T20:08:43.660Z,4.37
2019-04-11T20:11:13.943Z,4.39
2019-04-11T20:13:45.375Z,4.40
2019-04-11T20:16:15.320Z,4.41
2019-04-11T20:18:51.410Z,4.44
2019-04-11T20:21:20.726Z,4.45
2019-04-11T20:23:50.471Z,4.44
2019-04-11T20:26:21.228Z,4.46
2019-04-11T20:28:51.726Z,4.46
2019-04-11T20:31:21.428Z,4.47
2019-04-11T20:33:52.207Z,4.48
2019-04-11T20:36:32.857Z,4.49
2019-04-11T20:38:53.399Z,4.47
2019-04-11T20:41:24.664Z,4.47
2019-04-11T20:43:56.951Z,4.49
2019-04-11T20:46:29.194Z,4.49
2019-04-11T20:49:00.009Z,4.48
2019-04-11T20:51:30.495Z,4.48
2019-04-11T20:54:00.168Z,4.50
2019-04-11T20:56:29.828Z,4.50
2019-04-11T20:59:00.088Z,4.51
2019-04-11T21:01:29.715Z,4.51
2019-04-11T21:04:00.355Z,4.49
2019-04-11T21:06:32.071Z,4.44
2019-04-11T21:09:03.602Z,4.43
2019-04-11T21:11:36.551Z,4.39
2019-04-11T21:14:05.859Z,4.39
2019-04-11T21:16:35.839Z,4.36
2019-04-11T21:19:05.760Z,4.35
2019-04-11T21:21:35.671Z,4.36
2019-04-11T21:24:07.203Z,4.38
2019-04-11T21:26:36.852Z,4.38
2019-04-11T21:29:06.543Z,4.39
2019-04-11T21:31:36.169Z,4.41
2019-04-11T21:34:07.505Z,4.40
2019-04-11T21:36:38.821Z,4.39
2019-04-11T21:39:08.507Z,4.40
2019-04-11T21:41:38.400Z,4.39
2019-04-11T21:44:08.088Z,4.38
2019-04-11T21:46:41.619Z,4.37
2019-04-11T21:49:09.036Z,4.30
2019-04-11T21:51:41.287Z,4.22
2019-04-11T21:54:10.023Z,4.08
2019-04-11T21:56:39.627Z,3.91
2019-04-11T21:59:09.309Z,3.77
2019-04-11T22:01:41.047Z,3.70
2019-04-11T22:04:10.658Z,3.71
2019-04-11T22:06:40.899Z,3.69
2019-04-11T22:09:10.641Z,3.79
2019-04-11T22:11:40.349Z,3.87
2019-04-11T22:14:11.195Z,3.89
2019-04-11T22:16:44.302Z,3.86
2019-04-11T22:19:14.356Z,3.91
2019-04-11T22:21:46.079Z,3.98
2019-04-11T22:24:16.147Z,4.03
2019-04-11T22:26:50.104Z,4.08
2019-04-11T22:29:17.125Z,4.13
2019-04-11T22:31:47.775Z,4.16
2019-04-11T22:34:21.535Z,4.19
2019-04-11T22:36:51.219Z,4.16
2019-04-11T22:39:21.221Z,4.13
2019-04-11T22:41:50.863Z,4.14
2019-04-11T22:44:20.556Z,4.16
2019-04-11T22:46:50.245Z,4.17
2019-04-11T22:49:20.139Z,4.16
2019-04-11T22:51:52.377Z,4.11
2019-04-11T22:54:22.004Z,4.05
2019-04-11T22:56:52.039Z,4.07
2019-04-11T22:59:21.705Z,4.13
2019-04-11T23:01:52.946Z,4.19
2019-04-11T23:04:22.557Z,4.20
2019-04-11T23:06:52.693Z,4.24
2019-04-11T23:09:22.309Z,4.27
2019-04-11T23:11:51.939Z,4.30
2019-04-11T23:14:21.606Z,4.33
2019-04-11T23:16:51.296Z,4.36
2019-04-11T23:19:20.914Z,4.38
2019-04-11T23:21:51.138Z,4.38
2019-04-11T23:24:21.123Z,4.40
2019-04-11T23:26:50.741Z,4.41
2019-04-11T23:29:20.388Z,4.42
2019-04-11T23:31:50.767Z,4.41
2019-04-11T23:34:22.104Z,4.41
2019-04-11T23:36:52.453Z,4.41
2019-04-11T23:39:22.876Z,4.41
2019-04-11T23:41:53.236Z,4.40
2019-04-11T23:44:24.537Z,4.35
2019-04-11T23:46:54.171Z,4.34
2019-04-11T23:49:25.218Z,4.32
2019-04-11T23:51:55.952Z,4.32
2019-04-11T23:54:29.122Z,4.32
2019-04-11T23:57:00.752Z,4.29
2019-04-11T23:59:31.993Z,4.26
